Time;durP1;ratioP1;P1;durP2;ratioP2;P2;SDS_P1;SDS_P2;PMS_P1;PMS_P2;Temp;Humidity;BMP_temperature;BMP_pressure;BME280_temperature;BME280_humidity;BME280_pressure;Samples;Min_cycle;Max_cycle;Signal;HPM_P1;HPM_P2
2023/09/23 00:02:22;;;;;;;4.22;1.95;;;12.90;99.90;;;;;;4995929;28;20117;-79
2023/09/23 00:04:47;;;;;;;3.80;2.05;;;12.90;99.90;;;;;;4997125;28;20053;-79
2023/09/23 00:07:13;;;;;;;2.58;1.90;;;12.80;99.90;;;;;;4993953;28;20045;-79
2023/09/23 00:09:39;;;;;;;4.63;2.00;;;12.80;99.90;;;;;;4978828;28;20121;-78
2023/09/23 00:12:06;;;;;;;4.97;2.38;;;12.80;99.90;;;;;;4994392;28;20509;-79
2023/09/23 00:14:32;;;;;;;2.72;2.03;;;12.80;99.90;;;;;;4993595;28;20480;-78
2023/09/23 00:16:58;;;;;;;3.72;2.33;;;12.80;99.90;;;;;;4992270;28;20073;-78
2023/09/23 00:19:24;;;;;;;7.53;2.22;;;12.80;99.90;;;;;;4990824;28;20091;-79
2023/09/23 00:21:51;;;;;;;3.67;1.88;;;12.70;99.90;;;;;;4991691;28;20109;-79
2023/09/23 00:24:18;;;;;;;2.70;1.98;;;12.80;99.90;;;;;;4990458;28;20037;-79
2023/09/23 00:26:43;;;;;;;3.50;2.10;;;12.70;99.90;;;;;;4993987;28;20069;-78
2023/09/23 00:29:10;;;;;;;3.65;1.98;;;12.70;99.90;;;;;;4994320;28;20543;-78
2023/09/23 00:31:36;;;;;;;3.30;2.00;;;12.70;99.90;;;;;;4996495;28;20041;-79
2023/09/23 00:34:02;;;;;;;3.92;2.35;;;12.70;99.90;;;;;;4976453;28;20084;-78
2023/09/23 00:36:28;;;;;;;4.15;2.08;;;12.70;99.90;;;;;;4993948;28;20042;-78
2023/09/23 00:38:55;;;;;;;2.95;1.92;;;12.70;99.90;;;;;;4992012;28;20112;-79
2023/09/23 00:41:21;;;;;;;3.22;1.85;;;12.70;99.90;;;;;;5011241;28;20046;-79
2023/09/23 00:43:48;;;;;;;3.35;1.40;;;12.70;99.90;;;;;;4995755;28;20524;-79
2023/09/23 00:46:16;;;;;;;2.17;1.10;;;12.60;99.90;;;;;;4994997;28;20504;-79
2023/09/23 00:48:44;;;;;;;2.97;1.50;;;12.60;99.90;;;;;;4995906;28;20050;-79
2023/09/23 00:51:10;;;;;;;1.75;1.02;;;12.60;99.90;;;;;;4995967;28;20034;-79
2023/09/23 00:53:39;;;;;;;3.47;1.48;;;12.50;99.90;;;;;;4995564;28;20096;-79
2023/09/23 00:56:07;;;;;;;2.33;1.15;;;12.50;99.90;;;;;;4995392;28;20034;-79
2023/09/23 00:58:36;;;;;;;1.55;1.13;;;12.50;99.90;;;;;;4994438;28;20048;-79
2023/09/23 01:01:02;;;;;;;1.55;1.20;;;12.50;99.90;;;;;;4983123;28;20070;-79
2023/09/23 01:03:27;;;;;;;2.08;1.20;;;12.50;99.90;;;;;;4992689;28;20072;-79
2023/09/23 01:06:15;;;;;;;1.52;0.93;;;12.50;99.90;;;;;;4999884;28;20038;-79
2023/09/23 01:08:42;;;;;;;5.25;1.20;;;12.40;99.90;;;;;;4977616;28;20404;-79
2023/09/23 01:11:08;;;;;;;1.77;1.20;;;12.40;99.90;;;;;;4992976;28;20048;-79
2023/09/23 01:13:34;;;;;;;3.35;1.10;;;12.40;99.90;;;;;;4996726;28;20041;-79
2023/09/23 01:16:02;;;;;;;1.35;0.90;;;12.40;99.90;;;;;;4997095;28;20113;-79
2023/09/23 01:18:28;;;;;;;1.50;0.80;;;12.40;99.90;;;;;;4999988;28;20096;-79
2023/09/23 01:21:00;;;;;;;4.40;1.05;;;12.40;99.90;;;;;;4980533;28;20082;-79
2023/09/23 01:23:26;;;;;;;2.00;0.80;;;12.30;99.90;;;;;;4998861;28;20056;-79
2023/09/23 01:25:52;;;;;;;2.72;0.98;;;12.30;99.90;;;;;;4998571;28;20050;-79
2023/09/23 01:28:18;;;;;;;1.38;0.80;;;12.30;99.90;;;;;;5000609;28;20037;-79
2023/09/23 01:30:44;;;;;;;1.88;1.00;;;12.40;99.90;;;;;;4998105;28;20045;-80
2023/09/23 01:33:10;;;;;;;1.85;1.10;;;12.40;99.90;;;;;;4998381;28;20057;-80
2023/09/23 01:35:36;;;;;;;1.60;1.08;;;12.40;99.90;;;;;;5007175;28;20038;-80
2023/09/23 01:38:03;;;;;;;2.53;0.90;;;12.40;99.90;;;;;;4980963;28;20041;-81
2023/09/23 01:40:31;;;;;;;2.47;0.98;;;12.30;99.90;;;;;;4997341;28;20092;-81
2023/09/23 01:42:57;;;;;;;2.10;1.10;;;12.30;99.90;;;;;;4998195;28;20397;-81
2023/09/23 01:45:25;;;;;;;3.80;1.10;;;12.40;99.90;;;;;;4999302;28;20041;-79
2023/09/23 01:47:52;;;;;;;4.43;0.95;;;12.30;99.90;;;;;;4996223;28;20122;-79
2023/09/23 01:50:18;;;;;;;1.58;1.08;;;12.40;99.90;;;;;;5013635;28;20117;-80
2023/09/23 01:52:45;;;;;;;1.65;1.00;;;12.40;99.90;;;;;;4982096;28;20069;-81
2023/09/23 01:55:12;;;;;;;1.95;1.13;;;12.40;99.90;;;;;;4997614;28;20438;-82
2023/09/23 01:57:40;;;;;;;1.60;1.00;;;12.40;99.90;;;;;;4996619;28;20148;-81
2023/09/23 02:00:08;;;;;;;2.60;1.20;;;12.40;99.90;;;;;;4996983;28;20448;-81
2023/09/23 02:02:33;;;;;;;2.45;1.10;;;12.30;99.90;;;;;;4997864;28;20539;-81
2023/09/23 02:04:59;;;;;;;2.38;1.38;;;12.30;99.90;;;;;;4998415;28;20029;-81
2023/09/23 02:07:26;;;;;;;2.03;1.13;;;12.30;99.90;;;;;;4997423;28;20048;-81
2023/09/23 02:09:52;;;;;;;2.67;1.00;;;12.30;99.90;;;;;;4997213;28;20405;-81
2023/09/23 02:12:18;;;;;;;1.95;1.20;;;12.30;99.90;;;;;;5012995;28;20089;-82
2023/09/23 02:14:44;;;;;;;2.72;1.30;;;12.30;99.90;;;;;;4995596;28;20146;-82
2023/09/23 02:17:09;;;;;;;2.33;1.20;;;12.30;99.90;;;;;;4996978;28;20494;-81
2023/09/23 02:19:35;;;;;;;3.22;1.80;;;12.30;99.90;;;;;;4997818;28;20116;-81
2023/09/23 02:22:05;;;;;;;4.82;1.70;;;12.30;99.90;;;;;;4996877;28;20049;-81
2023/09/23 02:24:32;;;;;;;4.07;2.03;;;12.20;99.90;;;;;;4996516;28;20574;-81
2023/09/23 02:26:58;;;;;;;4.78;2.72;;;12.20;99.90;;;;;;4995649;28;20053;-82
2023/09/23 02:29:23;;;;;;;4.70;3.03;;;12.10;99.90;;;;;;4995715;28;20049;-82
2023/09/23 02:31:49;;;;;;;4.88;3.45;;;12.10;99.90;;;;;;4995871;28;20457;-81
2023/09/23 02:34:16;;;;;;;4.75;2.97;;;12.10;99.90;;;;;;4996753;28;20089;-81
2023/09/23 02:36:45;;;;;;;4.03;3.42;;;12.10;99.90;;;;;;4996282;28;20525;-80
2023/09/23 02:39:15;;;;;;;5.68;4.07;;;12.10;99.90;;;;;;5004510;28;20048;-81
2023/09/23 02:41:45;;;;;;;8.23;3.80;;;12.10;99.90;;;;;;4992000;28;20034;-81
2023/09/23 02:44:22;;;;;;;4.63;3.92;;;12.00;99.90;;;;;;4994955;28;20038;-83
2023/09/23 02:46:54;;;;;;;6.68;4.43;;;12.00;99.90;;;;;;4991741;28;20056;-82
2023/09/23 02:49:20;;;;;;;10.00;4.95;;;12.00;99.90;;;;;;4992123;28;20405;-82
2023/09/23 02:51:48;;;;;;;7.32;4.43;;;11.90;99.90;;;;;;4994806;28;20038;-81
2023/09/23 02:54:17;;;;;;;5.63;4.25;;;11.90;99.90;;;;;;4995924;28;20116;-82
2023/09/23 02:56:46;;;;;;;5.32;4.53;;;11.90;99.90;;;;;;4995230;28;20042;-82
2023/09/23 02:59:21;;;;;;;7.00;4.95;;;11.90;99.90;;;;;;4995749;28;20046;-81
2023/09/23 03:01:51;;;;;;;5.50;4.53;;;11.90;99.90;;;;;;4995391;28;20517;-81
2023/09/23 03:04:19;;;;;;;8.52;5.10;;;11.90;99.90;;;;;;4995759;28;20052;-81
2023/09/23 03:06:50;;;;;;;6.45;4.70;;;11.90;99.90;;;;;;4995621;28;20042;-82
2023/09/23 03:09:20;;;;;;;6.50;4.72;;;11.80;99.90;;;;;;4995216;28;20042;-81
2023/09/23 03:11:53;;;;;;;6.88;4.88;;;11.80;99.90;;;;;;4996120;28;20049;-81
2023/09/23 03:14:22;;;;;;;5.80;4.85;;;11.80;99.90;;;;;;4988220;28;20101;-81
2023/09/23 03:16:53;;;;;;;6.85;4.75;;;11.80;99.90;;;;;;4995787;28;20153;-81
2023/09/23 03:19:25;;;;;;;6.13;4.82;;;11.70;99.90;;;;;;4995717;28;20116;-82
2023/09/23 03:21:54;;;;;;;7.32;4.45;;;11.70;99.90;;;;;;4992550;28;20034;-82
2023/09/23 03:24:20;;;;;;;8.68;5.18;;;11.70;99.90;;;;;;4991342;28;20125;-81
2023/09/23 03:26:46;;;;;;;7.07;5.03;;;11.70;99.90;;;;;;4998817;28;20038;-81
2023/09/23 03:29:13;;;;;;;6.40;4.65;;;11.60;99.90;;;;;;4995914;28;20064;-82
2023/09/23 03:31:39;;;;;;;7.57;5.53;;;11.60;99.90;;;;;;4994117;28;20390;-80
2023/09/23 03:34:05;;;;;;;8.82;4.93;;;11.60;99.90;;;;;;4995700;28;20033;-82
2023/09/23 03:36:31;;;;;;;6.65;4.85;;;11.50;99.90;;;;;;4995185;28;20066;-81
2023/09/23 03:39:00;;;;;;;7.45;5.45;;;11.60;99.90;;;;;;4994340;28;20065;-81
2023/09/23 03:41:27;;;;;;;9.32;5.43;;;11.50;99.90;;;;;;4994884;28;20095;-81
2023/09/23 03:43:53;;;;;;;7.88;5.47;;;11.50;99.90;;;;;;4995865;28;20068;-81
2023/09/23 03:46:18;;;;;;;7.03;5.43;;;11.50;99.90;;;;;;4978560;28;20129;-81
2023/09/23 03:48:44;;;;;;;6.93;5.90;;;11.50;99.90;;;;;;4995244;28;20172;-81
2023/09/23 03:51:09;;;;;;;8.45;5.32;;;11.50;99.90;;;;;;4978245;28;20467;-81
2023/09/23 03:53:38;;;;;;;6.90;5.57;;;11.40;99.90;;;;;;4994344;28;20460;-81
2023/09/23 03:56:05;;;;;;;6.95;5.88;;;11.40;99.90;;;;;;4994291;28;20038;-81
2023/09/23 03:58:31;;;;;;;7.00;5.50;;;11.40;99.90;;;;;;4976803;28;20520;-81
2023/09/23 04:01:01;;;;;;;8.35;6.20;;;11.40;99.90;;;;;;4993536;28;20038;-81
2023/09/23 04:03:27;;;;;;;7.07;5.63;;;11.40;99.90;;;;;;4990444;28;20113;-81
2023/09/23 04:05:57;;;;;;;7.72;6.55;;;11.30;99.90;;;;;;4991711;28;20677;-81
2023/09/23 04:08:23;;;;;;;8.52;6.38;;;11.30;99.90;;;;;;4993657;28;20075;-80
2023/09/23 04:10:49;;;;;;;7.63;5.78;;;11.30;99.90;;;;;;4993091;28;20034;-81
2023/09/23 04:13:15;;;;;;;8.95;6.25;;;11.30;99.90;;;;;;4994429;28;20033;-80
2023/09/23 04:15:41;;;;;;;7.07;6.13;;;11.20;99.90;;;;;;4979741;28;20034;-80
2023/09/23 04:18:09;;;;;;;8.43;5.57;;;11.30;99.90;;;;;;4978513;28;20045;-81
2023/09/23 04:20:35;;;;;;;6.45;5.47;;;11.20;99.90;;;;;;4994416;28;20392;-80
2023/09/23 04:23:02;;;;;;;8.45;5.72;;;11.20;99.90;;;;;;4992438;28;20070;-81
2023/09/23 04:25:27;;;;;;;13.88;6.18;;;11.20;99.90;;;;;;4994481;28;20528;-81
2023/09/23 04:27:53;;;;;;;10.98;6.45;;;11.10;99.90;;;;;;4994366;28;20099;-80
2023/09/23 04:30:19;;;;;;;6.45;4.90;;;11.10;99.90;;;;;;4993734;28;20037;-80
2023/09/23 04:32:45;;;;;;;9.00;5.53;;;11.10;99.90;;;;;;4978010;28;20037;-81
2023/09/23 04:35:13;;;;;;;5.72;4.95;;;11.10;99.90;;;;;;4993985;28;20042;-80
2023/09/23 04:37:39;;;;;;;6.30;5.70;;;11.10;99.90;;;;;;4994363;28;20076;-80
2023/09/23 04:40:09;;;;;;;6.93;5.00;;;11.10;99.90;;;;;;4993785;28;20061;-80
2023/09/23 04:42:35;;;;;;;8.32;5.95;;;11.10;99.90;;;;;;4979944;28;20405;-79
2023/09/23 04:45:02;;;;;;;6.57;5.55;;;11.20;99.90;;;;;;4994418;28;20220;-80
2023/09/23 04:47:27;;;;;;;7.43;5.40;;;11.20;99.90;;;;;;4998060;28;20060;-81
2023/09/23 04:49:55;;;;;;;7.90;5.85;;;11.30;99.90;;;;;;4993501;28;20505;-80
2023/09/23 04:52:20;;;;;;;6.75;5.68;;;11.20;99.90;;;;;;4985993;28;20045;-80
2023/09/23 04:54:46;;;;;;;7.60;6.40;;;11.20;99.90;;;;;;4993914;28;20045;-80
2023/09/23 04:57:13;;;;;;;8.60;6.15;;;11.20;99.90;;;;;;4994990;28;20084;-81
2023/09/23 04:59:39;;;;;;;7.97;6.10;;;11.20;99.90;;;;;;4977575;28;20034;-80
2023/09/23 05:02:04;;;;;;;7.10;6.40;;;11.20;99.90;;;;;;4999258;28;20125;-80
2023/09/23 05:04:30;;;;;;;8.23;6.18;;;11.20;99.90;;;;;;4987766;28;20075;-80
2023/09/23 05:06:56;;;;;;;9.52;6.68;;;11.20;99.90;;;;;;4994764;28;20509;-81
2023/09/23 05:09:25;;;;;;;7.85;5.82;;;11.20;99.90;;;;;;4991878;28;20099;-80
2023/09/23 05:11:51;;;;;;;9.02;6.35;;;11.20;99.90;;;;;;4995681;28;20087;-79
2023/09/23 05:14:17;;;;;;;8.30;5.93;;;11.10;99.90;;;;;;4978547;28;20049;-80
2023/09/23 05:16:42;;;;;;;6.93;6.13;;;11.20;99.90;;;;;;4995735;28;20037;-80
2023/09/23 05:19:09;;;;;;;7.80;6.43;;;11.10;99.90;;;;;;4991397;28;20029;-80
2023/09/23 05:21:35;;;;;;;10.77;6.07;;;11.20;99.90;;;;;;4991153;28;20121;-80
2023/09/23 05:24:01;;;;;;;8.73;5.95;;;11.10;99.90;;;;;;4992501;28;20048;-80
2023/09/23 05:26:27;;;;;;;8.90;6.18;;;11.10;99.90;;;;;;4989977;28;20042;-80
2023/09/23 05:28:52;;;;;;;7.38;6.07;;;11.00;99.90;;;;;;4989716;28;20034;-80
2023/09/23 05:31:18;;;;;;;8.73;6.43;;;11.00;99.90;;;;;;4976686;28;20075;-80
2023/09/23 05:33:43;;;;;;;9.32;6.75;;;11.00;99.90;;;;;;4993338;28;20054;-80
2023/09/23 05:36:10;;;;;;;8.45;6.70;;;11.00;99.90;;;;;;4994579;28;20374;-80
2023/09/23 05:38:36;;;;;;;9.55;7.25;;;11.00;99.90;;;;;;4992375;28;20100;-80
2023/09/23 05:41:05;;;;;;;9.35;7.35;;;10.90;99.90;;;;;;5000222;28;20074;-80
2023/09/23 05:43:30;;;;;;;9.50;7.60;;;10.90;99.90;;;;;;4991990;28;20045;-80
2023/09/23 05:45:56;;;;;;;8.38;7.10;;;10.90;99.90;;;;;;4992266;28;20038;-79
2023/09/23 05:48:23;;;;;;;11.57;7.50;;;10.90;99.90;;;;;;4986721;28;20050;-79
2023/09/23 05:50:49;;;;;;;10.27;7.72;;;10.90;99.90;;;;;;4992406;28;20049;-80
2023/09/23 05:53:14;;;;;;;9.93;7.65;;;10.90;99.90;;;;;;4978366;28;20494;-79
2023/09/23 05:55:40;;;;;;;10.68;7.78;;;10.90;99.90;;;;;;4994666;28;20038;-79
2023/09/23 05:58:05;;;;;;;10.98;8.68;;;10.90;99.90;;;;;;4978508;28;20069;-79
2023/09/23 06:00:31;;;;;;;10.10;8.60;;;10.90;99.90;;;;;;4994630;28;20399;-79
2023/09/23 06:02:57;;;;;;;13.55;9.15;;;10.90;99.90;;;;;;4998820;28;20029;-80
2023/09/23 06:05:22;;;;;;;10.18;8.38;;;10.90;99.90;;;;;;4991720;28;20091;-80
2023/09/23 06:07:48;;;;;;;12.75;9.00;;;10.90;99.90;;;;;;4995802;28;20095;-80
2023/09/23 06:10:15;;;;;;;12.70;9.05;;;10.90;99.90;;;;;;4983255;28;20485;-80
2023/09/23 06:12:40;;;;;;;12.73;9.13;;;10.90;99.90;;;;;;4998136;28;20038;-80
2023/09/23 06:15:07;;;;;;;16.30;9.52;;;11.00;99.90;;;;;;4997190;28;20041;-78
2023/09/23 06:17:35;;;;;;;11.73;9.68;;;11.10;99.90;;;;;;4997688;28;20030;-79
2023/09/23 06:20:01;;;;;;;15.75;10.15;;;11.10;99.90;;;;;;4992388;28;20490;-80
2023/09/23 06:22:27;;;;;;;14.73;9.85;;;11.10;99.90;;;;;;5007020;28;20038;-80
2023/09/23 06:24:53;;;;;;;13.35;10.25;;;11.20;99.90;;;;;;4990311;28;20037;-79
2023/09/23 06:27:22;;;;;;;16.48;10.88;;;11.20;99.90;;;;;;4993744;28;20064;-80
2023/09/23 06:29:48;;;;;;;15.50;10.77;;;11.30;99.90;;;;;;4994997;28;20042;-80
2023/09/23 06:32:13;;;;;;;14.25;11.00;;;11.30;99.90;;;;;;4976801;28;20052;-80
2023/09/23 06:34:39;;;;;;;14.93;11.93;;;11.40;99.90;;;;;;4996079;28;20034;-80
2023/09/23 06:37:04;;;;;;;18.77;14.40;;;11.40;99.90;;;;;;4993713;28;20481;-80
2023/09/23 06:39:30;;;;;;;18.35;13.95;;;11.50;99.90;;;;;;4992341;28;20037;-80
2023/09/23 06:41:56;;;;;;;17.02;13.30;;;11.70;99.90;;;;;;4998560;28;20489;-80
2023/09/23 06:44:21;;;;;;;22.13;14.40;;;11.70;99.90;;;;;;4999789;28;20050;-80
2023/09/23 06:46:49;;;;;;;18.88;13.98;;;11.80;99.90;;;;;;4998629;28;20042;-80
2023/09/23 06:49:15;;;;;;;17.38;13.90;;;11.90;99.90;;;;;;5000149;28;20413;-80
2023/09/23 06:51:41;;;;;;;18.73;14.80;;;11.90;99.90;;;;;;5001307;28;20048;-81
2023/09/23 06:54:07;;;;;;;19.35;14.75;;;12.00;99.90;;;;;;5002147;28;20073;-80
2023/09/23 06:56:34;;;;;;;20.23;14.57;;;12.00;99.90;;;;;;5005752;28;20033;-79
2023/09/23 06:59:00;;;;;;;17.98;14.32;;;12.10;99.90;;;;;;5000611;28;20042;-80
2023/09/23 07:01:26;;;;;;;18.38;13.60;;;12.10;99.90;;;;;;4999541;28;20088;-80
2023/09/23 07:03:51;;;;;;;18.65;14.35;;;12.20;99.90;;;;;;5001056;28;20081;-79
2023/09/23 07:06:17;;;;;;;19.40;13.80;;;12.20;99.90;;;;;;5001326;28;20169;-80
2023/09/23 07:08:42;;;;;;;17.77;13.80;;;12.20;99.90;;;;;;5002782;28;20085;-80
2023/09/23 07:11:12;;;;;;;17.30;12.80;;;12.20;99.90;;;;;;5006423;28;20088;-80
2023/09/23 07:13:38;;;;;;;17.52;12.90;;;12.20;99.90;;;;;;5003512;28;20049;-78
2023/09/23 07:16:03;;;;;;;16.83;13.00;;;12.20;99.90;;;;;;4985753;28;20382;-80
2023/09/23 07:18:29;;;;;;;18.55;13.40;;;12.20;99.90;;;;;;4974495;28;20034;-79
2023/09/23 07:20:58;;;;;;;18.33;13.13;;;12.20;99.90;;;;;;4999507;28;20034;-79
2023/09/23 07:23:24;;;;;;;18.80;13.00;;;12.10;99.90;;;;;;5004286;28;20073;-80
2023/09/23 07:25:50;;;;;;;18.95;12.90;;;12.20;99.90;;;;;;5009923;28;20038;-79
2023/09/23 07:28:16;;;;;;;19.40;14.23;;;12.30;99.90;;;;;;5007009;28;20097;-79
2023/09/23 07:30:42;;;;;;;18.88;12.60;;;12.40;99.90;;;;;;4992278;28;20048;-80
2023/09/23 07:33:07;;;;;;;19.52;13.63;;;12.50;99.90;;;;;;5007748;28;20073;-80
2023/09/23 07:35:34;;;;;;;19.60;13.98;;;12.70;99.90;;;;;;5001189;28;20073;-80
2023/09/23 07:38:00;;;;;;;20.60;14.52;;;12.80;99.90;;;;;;5007441;28;20041;-80
2023/09/23 07:40:27;;;;;;;21.25;14.75;;;13.00;99.90;;;;;;5003660;28;20053;-80
2023/09/23 07:42:53;;;;;;;21.60;14.75;;;13.20;99.90;;;;;;5006110;28;20033;-79
2023/09/23 07:45:19;;;;;;;18.73;14.57;;;13.50;99.90;;;;;;5009254;28;20059;-79
2023/09/23 07:47:45;;;;;;;23.90;16.13;;;13.60;99.90;;;;;;5006500;28;20038;-80
2023/09/23 07:50:11;;;;;;;17.75;13.20;;;13.80;99.90;;;;;;5005847;28;20436;-80
2023/09/23 07:52:36;;;;;;;21.55;14.23;;;14.00;99.90;;;;;;4989773;28;20088;-80
2023/09/23 07:55:02;;;;;;;17.33;12.93;;;14.00;99.90;;;;;;4998664;28;20030;-80
2023/09/23 07:57:28;;;;;;;18.30;12.57;;;14.20;99.90;;;;;;4997959;28;20084;-80
2023/09/23 07:59:54;;;;;;;15.10;11.65;;;14.40;99.90;;;;;;5000224;28;20042;-80
2023/09/23 08:02:19;;;;;;;14.85;11.27;;;14.50;99.90;;;;;;5000398;28;20038;-80
2023/09/23 08:04:45;;;;;;;15.38;10.70;;;14.60;99.90;;;;;;4999489;28;20054;-80
2023/09/23 08:07:11;;;;;;;15.18;10.55;;;14.60;99.90;;;;;;4983787;28;20068;-80
2023/09/23 08:09:37;;;;;;;14.93;11.15;;;14.60;99.90;;;;;;4991555;28;20531;-82
2023/09/23 08:12:03;;;;;;;13.90;11.35;;;14.50;99.90;;;;;;4994083;28;20077;-81
2023/09/23 08:14:28;;;;;;;13.38;10.73;;;14.40;99.90;;;;;;4980209;28;20405;-82
2023/09/23 08:16:54;;;;;;;12.82;10.48;;;14.30;99.90;;;;;;4982578;28;20057;-80
2023/09/23 08:19:20;;;;;;;13.90;10.50;;;14.30;99.90;;;;;;4993612;28;20045;-81
2023/09/23 08:21:45;;;;;;;13.57;10.52;;;14.30;99.90;;;;;;4993779;28;20037;-81
2023/09/23 08:24:11;;;;;;;14.25;10.23;;;14.30;99.90;;;;;;4995468;28;20656;-82
2023/09/23 08:26:37;;;;;;;13.70;9.80;;;14.30;99.90;;;;;;4991040;28;20038;-82
2023/09/23 08:29:03;;;;;;;12.15;9.10;;;14.30;99.90;;;;;;4992147;28;20095;-82
2023/09/23 08:31:28;;;;;;;14.32;9.90;;;14.20;99.90;;;;;;4995127;28;20056;-81
2023/09/23 08:33:54;;;;;;;12.75;9.90;;;14.20;99.90;;;;;;4995599;28;20046;-81
2023/09/23 08:36:20;;;;;;;13.80;10.52;;;14.30;99.90;;;;;;4997049;28;20037;-80
2023/09/23 08:38:45;;;;;;;14.23;10.15;;;14.40;99.90;;;;;;4980151;28;20117;-81
2023/09/23 08:41:15;;;;;;;12.88;8.65;;;14.60;99.90;;;;;;4992946;28;20042;-81
2023/09/23 08:43:42;;;;;;;12.68;8.80;;;14.80;99.90;;;;;;4985857;28;20069;-81
2023/09/23 08:46:09;;;;;;;13.55;9.30;;;14.90;99.90;;;;;;4999341;28;20426;-82
2023/09/23 08:48:35;;;;;;;10.82;8.60;;;15.10;99.90;;;;;;4996545;28;20117;-81
2023/09/23 08:51:02;;;;;;;11.65;8.45;;;15.10;99.90;;;;;;4980785;28;20161;-81
2023/09/23 08:53:32;;;;;;;13.15;9.07;;;15.30;99.90;;;;;;4975142;28;20073;-79
2023/09/23 08:55:59;;;;;;;12.15;8.70;;;15.30;99.90;;;;;;4995466;28;20038;-81
2023/09/23 08:58:25;;;;;;;11.93;8.40;;;15.30;99.90;;;;;;4990084;28;20065;-80
2023/09/23 09:00:52;;;;;;;10.27;8.00;;;15.30;99.90;;;;;;4977284;28;20482;-81
2023/09/23 09:03:18;;;;;;;12.27;8.82;;;15.40;99.90;;;;;;4985851;28;20067;-81
2023/09/23 09:05:46;;;;;;;10.85;8.32;;;15.50;99.90;;;;;;4991180;28;20064;-80
2023/09/23 09:08:12;;;;;;;12.77;8.80;;;15.50;99.90;;;;;;4999701;28;20065;-80
2023/09/23 09:10:40;;;;;;;13.52;8.70;;;15.60;99.90;;;;;;4997583;28;20034;-80
2023/09/23 09:13:06;;;;;;;11.27;8.70;;;15.50;99.90;;;;;;4997162;28;20057;-81
2023/09/23 09:15:35;;;;;;;8.35;7.35;;;15.50;99.90;;;;;;4999358;28;20096;-80
2023/09/23 09:18:01;;;;;;;9.85;7.25;;;15.50;99.90;;;;;;4992165;28;20034;-81
2023/09/23 09:20:28;;;;;;;12.00;7.63;;;15.50;99.90;;;;;;4992925;28;20049;-80
2023/09/23 09:22:53;;;;;;;9.48;7.10;;;15.60;99.90;;;;;;4989132;28;20027;-80
2023/09/23 09:25:22;;;;;;;10.80;6.40;;;15.70;99.90;;;;;;4995547;28;20041;-80
2023/09/23 09:27:49;;;;;;;11.82;6.95;;;15.80;99.90;;;;;;4987638;28;20033;-80
2023/09/23 09:30:14;;;;;;;8.63;6.68;;;15.90;99.90;;;;;;4987619;28;20038;-80
2023/09/23 09:32:44;;;;;;;7.10;6.32;;;16.00;99.90;;;;;;4990572;28;20037;-80
2023/09/23 09:35:12;;;;;;;8.50;5.88;;;16.10;99.90;;;;;;4976269;28;20031;-79
2023/09/23 09:37:43;;;;;;;6.43;5.25;;;16.10;99.90;;;;;;4991771;28;20109;-80
2023/09/23 09:40:13;;;;;;;8.00;5.00;;;16.00;99.90;;;;;;4995845;28;20064;-79
2023/09/23 09:42:42;;;;;;;8.27;5.13;;;16.00;99.90;;;;;;4982436;28;20065;-80
2023/09/23 09:45:09;;;;;;;8.00;5.32;;;16.10;99.90;;;;;;4997236;28;20423;-80
2023/09/23 09:47:38;;;;;;;8.10;4.40;;;16.20;99.90;;;;;;4994566;28;20044;-79
2023/09/23 09:50:04;;;;;;;10.73;4.20;;;16.30;99.90;;;;;;4994511;28;20041;-79
2023/09/23 09:52:31;;;;;;;12.82;4.25;;;16.40;99.90;;;;;;4997954;28;20042;-79
2023/09/23 09:54:59;;;;;;;4.03;3.50;;;16.40;99.90;;;;;;4998541;28;20120;-80
2023/09/23 09:57:29;;;;;;;6.10;3.70;;;16.50;99.90;;;;;;4999640;28;20458;-79
2023/09/23 10:00:09;;;;;;;6.22;3.53;;;16.40;99.90;;;;;;4995038;28;20089;-79
2023/09/23 10:02:37;;;;;;;8.52;3.85;;;16.40;99.90;;;;;;4997600;28;20188;-80
2023/09/23 10:05:03;;;;;;;7.25;3.70;;;16.50;99.90;;;;;;4998670;28;20079;-79
2023/09/23 10:07:48;;;;;;;8.07;3.90;;;16.60;99.90;;;;;;5000115;28;20112;-81
2023/09/23 10:10:14;;;;;;;6.90;3.08;;;16.60;99.90;;;;;;5000631;28;20041;-81
2023/09/23 10:12:48;;;;;;;5.28;2.60;;;16.70;99.90;;;;;;5004969;28;20069;-81
2023/09/23 10:15:24;;;;;;;4.80;2.70;;;16.90;99.90;;;;;;4992666;28;20042;-79
2023/09/23 10:17:54;;;;;;;5.80;2.90;;;17.10;99.90;;;;;;5003927;28;20073;-80
2023/09/23 10:20:23;;;;;;;4.80;2.92;;;17.20;99.90;;;;;;4999404;28;20461;-79
2023/09/23 10:22:55;;;;;;;8.00;3.03;;;17.10;99.90;;;;;;5010327;28;20037;-79
2023/09/23 10:25:20;;;;;;;4.60;3.00;;;16.90;99.90;;;;;;4996042;28;20048;-80
2023/09/23 10:28:00;;;;;;;5.00;2.70;;;16.80;99.90;;;;;;4996962;28;20580;-81
2023/09/23 10:30:26;;;;;;;4.65;2.67;;;16.50;99.90;;;;;;4967660;28;20436;-81
2023/09/23 10:32:52;;;;;;;5.03;3.17;;;16.40;99.90;;;;;;4992295;28;20069;-81
2023/09/23 10:35:24;;;;;;;5.90;3.10;;;16.40;99.90;;;;;;4990538;28;20046;-80
2023/09/23 10:37:49;;;;;;;6.78;3.35;;;16.30;99.90;;;;;;4990071;28;20034;-80
2023/09/23 10:40:17;;;;;;;5.15;3.53;;;16.30;99.90;;;;;;4993615;28;20033;-79
2023/09/23 10:42:46;;;;;;;5.45;3.45;;;16.20;99.90;;;;;;5010016;28;21103;-80
2023/09/23 10:45:13;;;;;;;5.57;3.92;;;16.20;99.90;;;;;;4994642;28;20042;-79
2023/09/23 10:47:39;;;;;;;4.95;3.47;;;16.30;99.90;;;;;;4996166;28;20050;-80
2023/09/23 10:50:06;;;;;;;6.30;3.50;;;16.60;99.90;;;;;;4993584;28;20049;-81
2023/09/23 10:52:32;;;;;;;5.43;3.22;;;16.80;99.90;;;;;;4993909;28;20050;-80
2023/09/23 10:54:58;;;;;;;6.38;3.40;;;16.90;99.90;;;;;;4995740;28;20062;-78
2023/09/23 10:57:24;;;;;;;5.53;2.92;;;16.90;99.90;;;;;;4991496;28;20113;-79
2023/09/23 10:59:54;;;;;;;6.78;3.75;;;16.90;99.90;;;;;;4995681;28;20034;-79
2023/09/23 11:02:20;;;;;;;7.35;3.05;;;16.80;99.90;;;;;;4995549;28;20119;-79
2023/09/23 11:04:50;;;;;;;5.82;3.00;;;16.80;99.90;;;;;;4995678;28;20030;-80
2023/09/23 11:07:16;;;;;;;6.20;3.20;;;16.80;99.90;;;;;;4981912;28;20400;-80
2023/09/23 11:09:45;;;;;;;4.88;2.90;;;16.80;99.90;;;;;;4981631;28;20045;-79
2023/09/23 11:12:15;;;;;;;6.82;2.85;;;16.80;99.90;;;;;;4996255;28;20033;-80
2023/09/23 11:14:48;;;;;;;4.82;2.92;;;16.80;99.90;;;;;;5011965;28;20038;-80
2023/09/23 11:17:29;;;;;;;6.07;2.80;;;16.70;99.90;;;;;;4996400;28;20069;-80
2023/09/23 11:19:59;;;;;;;4.32;2.63;;;16.70;99.90;;;;;;4994265;28;20479;-80
2023/09/23 11:22:29;;;;;;;5.60;2.97;;;16.50;99.90;;;;;;4994454;28;20056;-79
2023/09/23 11:24:57;;;;;;;5.85;2.72;;;16.50;99.90;;;;;;4996071;28;20038;-79
2023/09/23 11:27:24;;;;;;;4.70;2.50;;;16.50;99.90;;;;;;5000744;28;20072;-80
2023/09/23 11:29:51;;;;;;;4.18;2.10;;;16.40;99.90;;;;;;4984751;28;20049;-79
2023/09/23 11:32:24;;;;;;;10.68;2.60;;;16.30;99.90;;;;;;4977090;28;20176;-78
2023/09/23 11:34:50;;;;;;;5.07;2.50;;;16.30;99.90;;;;;;4991454;28;20057;-78
2023/09/23 11:37:18;;;;;;;4.63;2.90;;;16.20;99.90;;;;;;4975680;28;20041;-78
2023/09/23 11:39:43;;;;;;;6.38;3.63;;;16.10;99.90;;;;;;4991517;28;20045;-78
2023/09/23 11:42:09;;;;;;;6.65;3.20;;;16.00;99.90;;;;;;4992954;28;20049;-79
2023/09/23 11:44:34;;;;;;;7.15;3.00;;;16.00;99.90;;;;;;4994242;28;20394;-78
2023/09/23 11:47:00;;;;;;;13.48;3.80;;;15.90;99.90;;;;;;4990716;28;20044;-76
2023/09/23 11:49:26;;;;;;;7.10;3.97;;;15.80;99.90;;;;;;4986379;28;20042;-78
2023/09/23 11:51:51;;;;;;;5.13;3.38;;;15.80;99.90;;;;;;4995296;28;20042;-78
2023/09/23 11:54:17;;;;;;;5.30;3.08;;;15.70;99.90;;;;;;4995696;28;20046;-78
2023/09/23 11:56:43;;;;;;;5.28;2.28;;;15.70;99.90;;;;;;4978403;28;20531;-78
2023/09/23 11:59:08;;;;;;;3.63;1.60;;;15.70;99.90;;;;;;4995160;28;20544;-79
2023/09/23 12:01:34;;;;;;;4.95;1.63;;;15.70;99.90;;;;;;4977618;28;20088;-79
2023/09/23 12:03:59;;;;;;;1.88;1.33;;;15.60;99.90;;;;;;4992286;28;20060;-77
2023/09/23 12:06:25;;;;;;;4.85;1.63;;;15.60;99.90;;;;;;5002697;28;20042;-78
2023/09/23 12:08:51;;;;;;;6.00;2.05;;;15.60;99.90;;;;;;4993848;28;20183;-78
2023/09/23 12:11:19;;;;;;;4.68;2.50;;;15.50;99.90;;;;;;4994436;28;20475;-79
2023/09/23 12:13:45;;;;;;;3.13;2.20;;;15.60;99.90;;;;;;4994143;28;20038;-79
2023/09/23 12:16:12;;;;;;;4.05;2.50;;;15.50;99.90;;;;;;4994033;28;20070;-78
2023/09/23 12:18:37;;;;;;;4.55;2.47;;;15.40;99.90;;;;;;4993552;28;20113;-78
2023/09/23 12:21:04;;;;;;;3.58;2.38;;;15.40;99.90;;;;;;4995033;28;20120;-78
2023/09/23 12:23:31;;;;;;;4.50;2.10;;;15.40;99.90;;;;;;4994651;28;20069;-77
2023/09/23 12:25:57;;;;;;;5.95;1.98;;;15.30;99.90;;;;;;4993090;28;20038;-78
2023/09/23 12:28:22;;;;;;;5.03;1.90;;;15.30;99.90;;;;;;4993374;28;20084;-78
2023/09/23 12:30:48;;;;;;;4.80;2.05;;;15.40;99.90;;;;;;4993483;28;20057;-78
2023/09/23 12:33:14;;;;;;;4.10;1.50;;;15.40;99.90;;;;;;4989399;28;20041;-78
2023/09/23 12:35:39;;;;;;;3.88;1.40;;;15.40;99.90;;;;;;4995768;28;20045;-79
2023/09/23 12:38:07;;;;;;;3.40;1.38;;;15.40;99.90;;;;;;4995132;28;20088;-78
2023/09/23 12:40:33;;;;;;;2.28;0.90;;;15.60;99.90;;;;;;4993305;28;20057;-78
2023/09/23 12:42:58;;;;;;;2.83;1.17;;;15.90;99.90;;;;;;4992529;28;20033;-79